Time;durP1;ratioP1;P1;durP2;ratioP2;P2;SDS_P1;SDS_P2;PMS_P1;PMS_P2;Temp;Humidity;BMP_temperature;BMP_pressure;BME280_temperature;BME280_humidity;BME280_pressure;Samples;Min_cycle;Max_cycle;Signal;HPM_P1;HPM_P2
2023/01/29 00:00:41;;;;;;;21.20;15.38;;;3.80;99.90;;;;;;4864117;29;20565;-85
2023/01/29 00:03:07;;;;;;;20.23;14.33;;;3.80;99.90;;;;;;4864711;29;20136;-86
2023/01/29 00:05:34;;;;;;;22.77;15.53;;;3.80;99.90;;;;;;4849128;29;20124;-87
2023/01/29 00:08:05;;;;;;;21.20;14.77;;;3.80;99.90;;;;;;4831257;29;20551;-87
2023/01/29 00:10:34;;;;;;;26.67;16.50;;;3.80;99.90;;;;;;4859200;29;20696;-86
2023/01/29 00:13:00;;;;;;;22.87;15.90;;;3.80;99.90;;;;;;4841599;29;20149;-86
2023/01/29 00:15:25;;;;;;;26.47;17.57;;;3.80;99.90;;;;;;4836347;29;20585;-86
2023/01/29 00:17:54;;;;;;;21.30;15.67;;;3.80;99.90;;;;;;4840689;29;20497;-86
2023/01/29 00:20:20;;;;;;;22.37;16.07;;;3.80;99.90;;;;;;4834625;29;20044;-86
2023/01/29 00:22:45;;;;;;;22.60;16.00;;;3.80;99.90;;;;;;4864106;29;20781;-86
2023/01/29 00:25:14;;;;;;;23.20;16.50;;;3.80;99.90;;;;;;4839731;29;20038;-86
2023/01/29 00:27:43;;;;;;;23.53;16.20;;;3.80;99.90;;;;;;4842483;29;20061;-86
2023/01/29 00:30:14;;;;;;;24.20;17.67;;;3.80;99.90;;;;;;4846499;29;20045;-87
2023/01/29 00:32:43;;;;;;;24.05;17.17;;;3.80;99.90;;;;;;4831072;29;20049;-86
2023/01/29 00:35:09;;;;;;;24.67;16.80;;;3.80;99.90;;;;;;4830944;29;20167;-86
2023/01/29 00:37:35;;;;;;;23.33;17.37;;;3.80;99.90;;;;;;4844255;29;20057;-86
2023/01/29 00:40:00;;;;;;;25.73;17.27;;;3.80;99.90;;;;;;4845982;29;20057;-86
2023/01/29 00:45:13;;;;;;;28.17;17.77;;;3.90;99.90;;;;;;4851484;29;20045;-86
2023/01/29 00:47:39;;;;;;;22.70;17.87;;;3.80;99.90;;;;;;4838101;29;20069;-86
2023/01/29 00:50:11;;;;;;;25.00;18.20;;;3.90;99.90;;;;;;4848302;29;20057;-86
2023/01/29 00:52:39;;;;;;;28.02;17.65;;;3.90;99.90;;;;;;4848157;29;20068;-86
2023/01/29 00:55:06;;;;;;;27.10;17.67;;;3.90;99.90;;;;;;4847934;29;20104;-87
2023/01/29 00:57:35;;;;;;;26.13;18.13;;;3.90;99.90;;;;;;4848205;29;20040;-86
2023/01/29 01:00:06;;;;;;;25.20;18.17;;;3.90;99.90;;;;;;4829875;29;20124;-86
2023/01/29 01:05:25;;;;;;;24.60;17.57;;;3.90;99.90;;;;;;4853886;29;20536;-86
2023/01/29 01:07:53;;;;;;;26.70;17.70;;;3.90;99.90;;;;;;4843451;29;20057;-87
2023/01/29 01:10:38;;;;;;;23.97;17.67;;;3.90;99.90;;;;;;4849867;29;20053;-87
2023/01/29 01:13:08;;;;;;;25.57;18.67;;;3.90;99.90;;;;;;4847248;29;20049;-87
2023/01/29 01:15:40;;;;;;;27.13;18.63;;;3.90;99.90;;;;;;4832693;29;20050;-87
2023/01/29 01:18:06;;;;;;;26.42;18.73;;;3.90;99.90;;;;;;4829565;29;20113;-87
2023/01/29 01:20:34;;;;;;;25.97;18.10;;;3.90;99.90;;;;;;4832620;29;20040;-87
2023/01/29 01:23:00;;;;;;;24.80;17.90;;;3.90;99.90;;;;;;4842042;29;20046;-87
2023/01/29 01:25:31;;;;;;;27.37;18.30;;;3.90;99.90;;;;;;4837925;29;20086;-87
2023/01/29 01:27:59;;;;;;;25.03;18.30;;;3.90;99.90;;;;;;4848218;29;20379;-86
2023/01/29 01:30:26;;;;;;;23.60;17.77;;;3.90;99.90;;;;;;4848702;29;20053;-86
2023/01/29 01:32:54;;;;;;;24.97;18.53;;;3.90;99.90;;;;;;4839244;29;20255;-87
2023/01/29 01:35:20;;;;;;;26.80;19.20;;;3.90;99.90;;;;;;4821084;29;20049;-86
2023/01/29 01:37:46;;;;;;;25.13;18.87;;;3.90;99.90;;;;;;4830027;29;20104;-87
2023/01/29 01:40:17;;;;;;;25.50;18.80;;;3.90;99.90;;;;;;4840431;29;20041;-86
2023/01/29 01:42:49;;;;;;;26.03;18.90;;;3.90;99.90;;;;;;4848060;29;20162;-86
2023/01/29 01:45:33;;;;;;;28.03;18.47;;;3.90;99.90;;;;;;4843827;29;20057;-86
2023/01/29 01:48:23;;;;;;;27.57;17.90;;;4.00;99.90;;;;;;4853947;29;20064;-86
2023/01/29 01:51:02;;;;;;;29.07;19.27;;;3.90;99.90;;;;;;4846451;29;20405;-87
2023/01/29 01:53:51;;;;;;;26.93;19.40;;;3.90;99.90;;;;;;4855069;29;20053;-87
2023/01/29 01:56:23;;;;;;;28.77;18.93;;;4.00;99.90;;;;;;4848005;29;20453;-86
2023/01/29 01:58:52;;;;;;;27.17;18.43;;;4.00;99.90;;;;;;4829856;29;20060;-86
2023/01/29 02:01:27;;;;;;;25.63;19.57;;;4.00;99.90;;;;;;4829448;29;20482;-86
2023/01/29 02:09:59;;;;;;;26.33;19.63;;;4.00;99.90;;;;;;4837631;29;20057;-86
2023/01/29 02:12:27;;;;;;;27.77;19.00;;;4.00;99.90;;;;;;4847726;29;20152;-86
2023/01/29 02:14:53;;;;;;;27.17;19.70;;;4.00;99.90;;;;;;4832513;29;20049;-86
2023/01/29 02:17:19;;;;;;;27.27;19.67;;;4.00;99.90;;;;;;4847336;29;20048;-86
2023/01/29 02:20:25;;;;;;;29.10;20.47;;;4.00;99.90;;;;;;4846364;29;20045;-86
2023/01/29 02:23:12;;;;;;;29.07;19.90;;;4.00;99.90;;;;;;4846240;29;20152;-86
2023/01/29 02:26:00;;;;;;;30.37;20.33;;;4.00;99.90;;;;;;4846864;29;20048;-86
2023/01/29 02:28:54;;;;;;;30.67;19.97;;;4.00;99.90;;;;;;4847222;29;20143;-86
2023/01/29 02:31:47;;;;;;;28.97;20.13;;;4.00;99.90;;;;;;4841670;29;20033;-86
2023/01/29 02:37:36;;;;;;;28.63;20.30;;;4.00;99.90;;;;;;4861674;29;20134;-86
2023/01/29 02:40:22;;;;;;;25.40;19.67;;;4.00;99.90;;;;;;4862599;29;20037;-86
2023/01/29 02:43:05;;;;;;;28.37;20.17;;;4.00;99.90;;;;;;4828868;29;20046;-86
2023/01/29 02:46:00;;;;;;;27.63;19.70;;;4.00;99.90;;;;;;4840488;29;20132;-87
2023/01/29 02:48:39;;;;;;;31.23;19.60;;;4.00;99.90;;;;;;4777386;29;20050;-86
2023/01/29 02:51:18;;;;;;;28.30;20.07;;;4.00;99.90;;;;;;4824269;29;20489;-85
2023/01/29 02:53:53;;;;;;;27.87;19.13;;;4.00;99.90;;;;;;4819634;29;20045;-87
2023/01/29 02:56:40;;;;;;;27.37;19.87;;;4.00;99.90;;;;;;4843618;29;20834;-86
2023/01/29 02:59:20;;;;;;;33.03;20.50;;;4.00;99.90;;;;;;4824880;29;20379;-87
2023/01/29 03:01:55;;;;;;;28.07;20.73;;;4.00;99.90;;;;;;4822910;29;20046;-86
2023/01/29 03:04:29;;;;;;;27.63;19.50;;;4.00;99.90;;;;;;4810031;29;20046;-87
2023/01/29 03:10:11;;;;;;;31.60;19.47;;;4.00;99.90;;;;;;4842796;29;20060;-86
2023/01/29 03:12:40;;;;;;;27.00;20.73;;;4.00;99.90;;;;;;4813884;29;20037;-87
2023/01/29 03:15:17;;;;;;;32.63;21.90;;;4.00;99.90;;;;;;4827437;29;20071;-87
2023/01/29 03:17:57;;;;;;;26.93;19.40;;;4.00;99.90;;;;;;4832031;29;20080;-87
2023/01/29 03:20:31;;;;;;;31.87;21.27;;;4.00;99.90;;;;;;4817582;29;20042;-86
2023/01/29 03:23:06;;;;;;;28.87;19.83;;;4.00;99.90;;;;;;4823818;29;20382;-87
2023/01/29 03:34:15;;;;;;;27.83;19.37;;;3.90;99.90;;;;;;4842114;29;20132;-87
2023/01/29 03:37:03;;;;;;;28.17;19.33;;;4.00;99.90;;;;;;4814187;29;20084;-87
2023/01/29 03:39:35;;;;;;;28.37;20.03;;;4.00;99.90;;;;;;4819963;29;20153;-86
2023/01/29 03:42:42;;;;;;;25.43;17.77;;;3.90;99.90;;;;;;4842572;29;20089;-88
2023/01/29 03:45:54;;;;;;;30.43;19.80;;;4.00;99.90;;;;;;4737625;30;20059;-86
2023/01/29 03:48:55;;;;;;;29.93;20.07;;;4.00;99.90;;;;;;4824716;29;20136;-87
2023/01/29 03:51:29;;;;;;;26.53;19.47;;;4.00;99.90;;;;;;4862538;29;20045;-87
2023/01/29 03:54:16;;;;;;;26.83;18.80;;;3.90;99.90;;;;;;4845765;29;20037;-87
2023/01/29 03:57:26;;;;;;;29.13;19.83;;;3.90;99.90;;;;;;4840984;29;20131;-86
2023/01/29 04:00:07;;;;;;;27.23;19.38;;;3.90;99.90;;;;;;4845074;29;20086;-87
2023/01/29 04:02:49;;;;;;;30.27;19.70;;;3.90;99.90;;;;;;4844334;29;20177;-87
2023/01/29 04:05:23;;;;;;;26.00;18.67;;;4.00;99.90;;;;;;4809352;29;20053;-87
2023/01/29 04:07:56;;;;;;;30.23;19.70;;;4.00;99.90;;;;;;4831426;29;20038;-86
2023/01/29 04:10:26;;;;;;;28.43;19.37;;;4.00;99.90;;;;;;4820366;29;20058;-87
2023/01/29 04:13:04;;;;;;;27.87;19.63;;;4.00;99.90;;;;;;4827503;29;20048;-86
2023/01/29 04:15:35;;;;;;;27.07;19.43;;;4.00;99.90;;;;;;4814591;29;20057;-87
2023/01/29 04:18:05;;;;;;;26.80;18.87;;;4.00;99.90;;;;;;4837098;29;20049;-87
2023/01/29 04:20:34;;;;;;;27.30;19.90;;;4.00;99.90;;;;;;4830854;29;20064;-87
2023/01/29 04:23:12;;;;;;;27.17;19.33;;;4.00;99.90;;;;;;4842018;29;20124;-87
2023/01/29 04:26:07;;;;;;;30.13;19.17;;;4.10;99.90;;;;;;4846075;29;20049;-86
2023/01/29 04:28:58;;;;;;;31.93;21.27;;;4.10;99.90;;;;;;4845554;29;20040;-86
2023/01/29 04:31:31;;;;;;;28.08;20.08;;;4.10;99.90;;;;;;4845617;29;20048;-85
2023/01/29 04:34:07;;;;;;;29.17;20.90;;;4.10;99.90;;;;;;4845945;29;20045;-86
2023/01/29 04:37:01;;;;;;;30.27;19.37;;;4.10;99.90;;;;;;4842705;29;20041;-85
2023/01/29 04:39:52;;;;;;;29.37;20.07;;;4.10;99.90;;;;;;4806960;29;20081;-86
2023/01/29 04:42:57;;;;;;;25.73;18.90;;;4.10;99.90;;;;;;4838589;29;20041;-86
2023/01/29 04:45:54;;;;;;;27.83;19.60;;;4.10;99.90;;;;;;4831301;29;20045;-86
2023/01/29 04:48:44;;;;;;;28.23;19.77;;;4.10;99.90;;;;;;4863932;29;20055;-85
2023/01/29 04:51:34;;;;;;;29.47;20.37;;;4.10;99.90;;;;;;4849102;29;20104;-85
2023/01/29 04:54:16;;;;;;;30.23;20.97;;;4.10;99.90;;;;;;4848629;29;20056;-86
2023/01/29 04:57:05;;;;;;;30.40;21.40;;;4.10;99.90;;;;;;4848452;29;20037;-86
2023/01/29 04:59:40;;;;;;;31.30;21.07;;;4.10;99.90;;;;;;4811952;29;20085;-86
2023/01/29 05:02:08;;;;;;;29.67;20.73;;;4.10;99.90;;;;;;4826831;29;20048;-83
2023/01/29 05:04:37;;;;;;;28.90;20.93;;;4.10;99.90;;;;;;4849042;29;20443;-86
2023/01/29 05:07:12;;;;;;;28.73;20.87;;;4.10;99.90;;;;;;4844967;29;20052;-87
2023/01/29 05:09:38;;;;;;;31.73;20.07;;;4.10;99.90;;;;;;4826868;29;20129;-85
2023/01/29 05:12:07;;;;;;;28.60;20.40;;;4.10;99.90;;;;;;4823041;29;20281;-87
2023/01/29 05:14:34;;;;;;;27.03;20.03;;;4.10;99.90;;;;;;4831658;29;20529;-86
2023/01/29 05:17:07;;;;;;;32.40;21.97;;;4.20;99.90;;;;;;4848454;29;20037;-86
2023/01/29 05:19:35;;;;;;;31.20;21.30;;;4.20;99.90;;;;;;4841046;29;20076;-86
2023/01/29 05:22:05;;;;;;;33.10;22.43;;;4.20;99.90;;;;;;4845422;29;20571;-86
2023/01/29 05:24:30;;;;;;;32.30;22.40;;;4.20;99.90;;;;;;4832411;29;20127;-86
2023/01/29 05:29:50;;;;;;;34.23;22.57;;;4.20;99.90;;;;;;4839330;29;20041;-86
2023/01/29 05:32:19;;;;;;;31.67;22.57;;;4.20;99.90;;;;;;4829123;29;20057;-86
2023/01/29 05:35:05;;;;;;;32.63;22.33;;;4.20;99.90;;;;;;4845682;29;20048;-87
2023/01/29 05:37:36;;;;;;;30.10;21.43;;;4.20;99.90;;;;;;4839500;29;20077;-86
2023/01/29 05:40:02;;;;;;;31.93;22.07;;;4.20;99.90;;;;;;4855791;29;20430;-86
2023/01/29 05:42:28;;;;;;;32.47;22.40;;;4.20;99.90;;;;;;4852664;29;20041;-86
2023/01/29 05:44:56;;;;;;;33.10;22.57;;;4.20;99.90;;;;;;4843723;29;20125;-85
2023/01/29 05:47:24;;;;;;;32.57;22.03;;;4.20;99.90;;;;;;4848986;29;20068;-87
2023/01/29 05:49:50;;;;;;;31.70;22.70;;;4.20;99.90;;;;;;4829258;29;20084;-87
2023/01/29 05:52:19;;;;;;;30.83;22.37;;;4.20;99.90;;;;;;4858347;29;20565;-86
2023/01/29 05:54:45;;;;;;;34.40;23.10;;;4.30;99.90;;;;;;4857625;29;20056;-86
2023/01/29 05:57:11;;;;;;;31.73;23.17;;;4.30;99.90;;;;;;4828529;29;20059;-86
2023/01/29 05:59:42;;;;;;;32.20;23.00;;;4.30;99.90;;;;;;4829569;29;20045;-86
2023/01/29 06:02:13;;;;;;;31.73;23.47;;;4.30;99.90;;;;;;4814381;29;20498;-86
2023/01/29 06:04:39;;;;;;;39.83;24.33;;;4.30;99.90;;;;;;4829005;29;20033;-87
2023/01/29 06:07:09;;;;;;;34.07;24.33;;;4.30;99.90;;;;;;4839181;29;20470;-85
2023/01/29 06:09:38;;;;;;;31.43;23.07;;;4.20;99.90;;;;;;4813791;29;20053;-87
2023/01/29 06:12:05;;;;;;;31.37;23.00;;;4.20;99.90;;;;;;4831360;29;20038;-86
2023/01/29 06:14:31;;;;;;;33.93;23.77;;;4.20;99.90;;;;;;4829191;29;20414;-84
2023/01/29 06:17:03;;;;;;;36.07;24.80;;;4.20;99.90;;;;;;4822481;29;20108;-87
2023/01/29 06:19:35;;;;;;;36.97;25.43;;;4.20;99.90;;;;;;4847384;29;20049;-86
2023/01/29 06:22:03;;;;;;;33.97;24.70;;;4.20;99.90;;;;;;4847552;29;20041;-85
2023/01/29 06:24:31;;;;;;;35.80;24.73;;;4.20;99.90;;;;;;4831902;29;20053;-86
2023/01/29 06:27:00;;;;;;;36.03;25.30;;;4.20;99.90;;;;;;4816009;29;20092;-87
2023/01/29 06:29:28;;;;;;;34.83;24.60;;;4.20;99.90;;;;;;4840996;29;20689;-87
2023/01/29 06:31:54;;;;;;;35.67;25.97;;;4.20;99.90;;;;;;4846834;29;20512;-87
2023/01/29 06:34:33;;;;;;;37.07;25.70;;;4.20;99.90;;;;;;4834485;29;20442;-88
2023/01/29 06:37:13;;;;;;;35.97;24.20;;;4.20;99.90;;;;;;4800675;29;20049;-85
2023/01/29 06:39:39;;;;;;;36.90;25.63;;;4.20;99.90;;;;;;4834645;29;20036;-86
2023/01/29 06:42:05;;;;;;;33.37;25.53;;;4.20;99.90;;;;;;4842268;29;20049;-87
2023/01/29 06:44:36;;;;;;;35.40;26.63;;;4.20;99.90;;;;;;4829943;29;20046;-86
2023/01/29 06:47:02;;;;;;;38.83;26.70;;;4.20;99.90;;;;;;4828456;29;20062;-87
2023/01/29 06:49:31;;;;;;;34.80;25.20;;;4.20;99.90;;;;;;4829135;29;20064;-87
2023/01/29 06:51:57;;;;;;;39.17;26.10;;;4.20;99.90;;;;;;4826019;29;20406;-87
2023/01/29 06:54:23;;;;;;;33.37;25.53;;;4.20;99.90;;;;;;4850246;29;20052;-87
2023/01/29 06:56:52;;;;;;;34.83;25.23;;;4.30;99.90;;;;;;4836524;29;20050;-87
2023/01/29 06:59:18;;;;;;;32.90;25.10;;;4.20;99.90;;;;;;4828548;29;20045;-86
2023/01/29 07:01:46;;;;;;;34.63;25.33;;;4.20;99.90;;;;;;4834288;29;20059;-86
2023/01/29 07:04:15;;;;;;;34.10;24.67;;;4.20;99.90;;;;;;4830419;29;20477;-86
2023/01/29 07:06:41;;;;;;;34.47;25.73;;;4.20;99.90;;;;;;4848526;29;20561;-87
2023/01/29 07:09:12;;;;;;;33.37;24.83;;;4.30;99.90;;;;;;4841526;29;20406;-85
2023/01/29 07:11:37;;;;;;;33.27;25.23;;;4.30;99.90;;;;;;4836845;29;20059;-86
2023/01/29 07:14:06;;;;;;;34.63;25.17;;;4.30;99.90;;;;;;4831310;29;20037;-86
2023/01/29 07:16:34;;;;;;;31.17;24.00;;;4.30;99.90;;;;;;4810212;29;20057;-87
2023/01/29 07:19:03;;;;;;;32.63;24.83;;;4.30;99.90;;;;;;4840169;29;20486;-87
2023/01/29 07:21:31;;;;;;;32.83;24.77;;;4.20;99.90;;;;;;4829501;29;20037;-87
2023/01/29 07:23:57;;;;;;;34.50;24.87;;;4.30;99.90;;;;;;4828983;29;20046;-86
2023/01/29 07:26:35;;;;;;;31.80;23.83;;;4.30;99.90;;;;;;4835379;29;20041;-87
2023/01/29 07:29:00;;;;;;;32.00;25.17;;;4.20;99.90;;;;;;4827063;29;20919;-86
2023/01/29 07:31:27;;;;;;;31.43;24.97;;;4.20;99.90;;;;;;4814567;29;20049;-86
2023/01/29 07:33:58;;;;;;;33.33;25.67;;;4.30;99.90;;;;;;4828788;29;20053;-86
2023/01/29 07:36:24;;;;;;;36.60;25.67;;;4.20;99.90;;;;;;4814137;29;20045;-87
2023/01/29 07:38:52;;;;;;;34.30;25.60;;;4.30;99.90;;;;;;4818726;29;20183;-86
2023/01/29 07:41:19;;;;;;;32.33;25.37;;;4.30;99.90;;;;;;4809537;29;20072;-86
2023/01/29 07:43:48;;;;;;;34.83;25.60;;;4.20;99.90;;;;;;4819009;29;20166;-87
2023/01/29 07:46:17;;;;;;;36.33;26.40;;;4.20;99.90;;;;;;4821961;29;20057;-87
2023/01/29 07:48:48;;;;;;;36.08;25.88;;;4.20;99.90;;;;;;4813167;29;20489;-87
2023/01/29 07:51:32;;;;;;;35.80;26.60;;;4.20;99.90;;;;;;4822177;29;20064;-86
2023/01/29 07:53:58;;;;;;;38.13;27.23;;;4.20;99.90;;;;;;4832380;29;20093;-84
2023/01/29 07:56:23;;;;;;;35.63;26.90;;;4.20;99.90;;;;;;4851000;29;20459;-88
2023/01/29 07:58:49;;;;;;;37.27;26.63;;;4.20;99.90;;;;;;4828115;29;20502;-86
2023/01/29 08:01:24;;;;;;;38.63;26.70;;;4.20;99.90;;;;;;4818984;29;20057;-87
2023/01/29 08:04:00;;;;;;;38.07;25.43;;;4.30;99.90;;;;;;4825409;29;20042;-86
2023/01/29 08:06:28;;;;;;;37.23;26.50;;;4.30;99.90;;;;;;4826204;29;20049;-85
2023/01/29 08:08:56;;;;;;;36.53;25.97;;;4.20;99.90;;;;;;4824210;29;20049;-87
2023/01/29 08:11:22;;;;;;;37.40;26.90;;;4.20;99.90;;;;;;4837462;29;20133;-86
2023/01/29 08:13:48;;;;;;;37.57;27.27;;;4.30;99.90;;;;;;4844788;29;20048;-86
2023/01/29 08:16:14;;;;;;;38.40;28.00;;;4.30;99.90;;;;;;4827293;29;20461;-86
2023/01/29 08:18:42;;;;;;;35.13;26.80;;;4.30;99.90;;;;;;4851670;29;20041;-85
2023/01/29 08:21:11;;;;;;;37.77;27.37;;;4.30;99.90;;;;;;4834964;29;20511;-86
2023/01/29 08:23:37;;;;;;;40.43;28.33;;;4.30;99.90;;;;;;4830302;29;20125;-87
2023/01/29 08:26:03;;;;;;;40.93;29.17;;;4.30;99.90;;;;;;4836545;29;20132;-85
2023/01/29 08:28:29;;;;;;;38.37;28.60;;;4.40;99.90;;;;;;4825152;29;20117;-87
2023/01/29 08:30:58;;;;;;;36.03;26.57;;;4.40;99.90;;;;;;4833393;29;20097;-86
2023/01/29 08:33:28;;;;;;;38.23;27.47;;;4.40;99.90;;;;;;4836130;29;20041;-86
2023/01/29 08:35:54;;;;;;;40.60;28.60;;;4.40;99.90;;;;;;4844839;29;20066;-87
2023/01/29 08:38:32;;;;;;;38.93;28.00;;;4.50;99.90;;;;;;4845863;29;20070;-87
2023/01/29 08:40:58;;;;;;;40.17;28.20;;;4.50;99.90;;;;;;4814115;29;20068;-84
2023/01/29 08:43:27;;;;;;;39.53;28.23;;;4.60;99.90;;;;;;4850510;29;20469;-87
2023/01/29 08:45:53;;;;;;;41.33;28.73;;;4.60;99.90;;;;;;4840099;29;20101;-87
2023/01/29 08:48:19;;;;;;;39.70;28.23;;;4.60;99.90;;;;;;4844295;29;20041;-86
2023/01/29 08:50:52;;;;;;;40.13;27.57;;;4.60;99.90;;;;;;4832257;29;20482;-86
2023/01/29 08:53:23;;;;;;;38.67;27.67;;;4.60;99.90;;;;;;4834373;29;20390;-86
2023/01/29 08:55:49;;;;;;;37.53;26.97;;;4.60;99.90;;;;;;4830295;29;20041;-85
2023/01/29 08:58:21;;;;;;;42.27;28.03;;;4.60;99.90;;;;;;4846161;29;20045;-87
2023/01/29 09:00:49;;;;;;;37.70;26.80;;;4.70;99.90;;;;;;4856485;29;20097;-88
2023/01/29 09:03:15;;;;;;;37.93;27.07;;;4.70;99.90;;;;;;4844855;29;20549;-87
2023/01/29 09:05:48;;;;;;;39.83;27.23;;;4.70;99.90;;;;;;4833217;29;20044;-87
2023/01/29 09:08:17;;;;;;;39.03;26.27;;;4.70;99.90;;;;;;4824233;29;20037;-87
2023/01/29 09:10:48;;;;;;;37.17;26.20;;;4.70;99.90;;;;;;4817419;29;20041;-87
2023/01/29 09:13:14;;;;;;;40.23;26.73;;;4.70;99.90;;;;;;4856725;29;20037;-86
2023/01/29 09:15:39;;;;;;;38.00;27.47;;;4.80;99.90;;;;;;4848217;29;20038;-86
2023/01/29 09:18:08;;;;;;;38.90;26.47;;;4.80;99.90;;;;;;4848323;29;20517;-85
2023/01/29 09:20:41;;;;;;;40.90;26.97;;;4.90;99.90;;;;;;4841863;29;20072;-86
2023/01/29 09:23:09;;;;;;;37.63;26.27;;;4.80;99.90;;;;;;4821440;29;20037;-86
2023/01/29 09:25:41;;;;;;;37.90;25.70;;;4.90;99.90;;;;;;4834116;29;20056;-88
2023/01/29 09:28:07;;;;;;;;;;;4.90;99.90;;;;;;4842263;29;20703;-86
2023/01/29 09:30:41;;;;;;;41.83;26.90;;;4.80;99.90;;;;;;4840490;29;19924;-88
2023/01/29 09:33:07;;;;;;;38.33;25.60;;;4.80;99.90;;;;;;4846824;29;20049;-83
2023/01/29 09:35:35;;;;;;;37.13;25.83;;;4.90;99.90;;;;;;4828339;29;20102;-85
2023/01/29 09:38:06;;;;;;;39.50;27.27;;;4.90;99.90;;;;;;4838096;29;20053;-86
2023/01/29 09:40:52;;;;;;;41.03;26.87;;;4.90;99.90;;;;;;4847208;29;20497;-86
2023/01/29 09:43:51;;;;;;;40.13;27.20;;;4.90;99.90;;;;;;4836703;29;20036;-86
2023/01/29 09:46:25;;;;;;;39.87;27.13;;;5.00;99.90;;;;;;4826714;29;20528;-87
2023/01/29 09:49:05;;;;;;;35.27;25.10;;;5.00;99.90;;;;;;4836802;29;20060;-85
2023/01/29 09:51:38;;;;;;;39.40;26.30;;;5.10;99.90;;;;;;4833798;29;20081;-85
2023/01/29 09:54:13;;;;;;;40.50;26.57;;;5.00;99.90;;;;;;4828173;29;20049;-86
2023/01/29 09:56:44;;;;;;;37.23;26.77;;;5.00;99.90;;;;;;4826972;29;20052;-86
2023/01/29 09:59:13;;;;;;;39.00;25.43;;;5.00;99.90;;;;;;4826958;29;20072;-86
2023/01/29 10:02:12;;;;;;;37.93;25.43;;;5.10;99.90;;;;;;4830999;29;20041;-83
2023/01/29 10:04:47;;;;;;;43.43;28.00;;;5.10;99.90;;;;;;4842159;29;20113;-87
2023/01/29 10:08:04;;;;;;;40.07;26.27;;;5.00;99.90;;;;;;4832187;29;20068;-86
2023/01/29 10:10:48;;;;;;;39.73;26.07;;;5.00;99.90;;;;;;4829190;29;20076;-86
2023/01/29 10:13:52;;;;;;;42.10;26.30;;;5.00;99.90;;;;;;4828734;29;20096;-87
2023/01/29 10:16:20;;;;;;;41.60;27.60;;;5.00;99.90;;;;;;4845888;29;20157;-83
2023/01/29 10:19:08;;;;;;;40.97;26.80;;;5.00;99.90;;;;;;4833035;29;20565;-86
2023/01/29 10:21:58;;;;;;;37.10;25.40;;;5.10;99.90;;;;;;4852004;29;20045;-86
2023/01/29 10:24:40;;;;;;;40.50;27.83;;;5.20;99.90;;;;;;4830791;29;20124;-86
2023/01/29 10:27:14;;;;;;;40.70;26.83;;;5.20;99.90;;;;;;4846183;29;20087;-86
2023/01/29 10:29:42;;;;;;;38.27;27.37;;;5.20;99.90;;;;;;4828664;29;20524;-85
2023/01/29 10:32:14;;;;;;;39.67;27.53;;;5.20;99.90;;;;;;4832363;29;20049;-85
2023/01/29 10:34:52;;;;;;;43.57;28.03;;;5.30;99.90;;;;;;4812094;29;20045;-85
2023/01/29 10:37:23;;;;;;;40.33;27.97;;;5.20;99.90;;;;;;4842199;29;20041;-83
2023/01/29 10:39:49;;;;;;;41.20;28.17;;;5.30;99.90;;;;;;4825860;29;20042;-85
2023/01/29 10:42:37;;;;;;;39.07;26.47;;;5.30;99.90;;;;;;4824117;29;20077;-85
2023/01/29 10:45:11;;;;;;;40.60;28.10;;;5.30;99.90;;;;;;4812640;29;20046;-86
2023/01/29 10:47:54;;;;;;;43.73;28.77;;;5.20;99.90;;;;;;4833552;29;20061;-86
2023/01/29 10:50:34;;;;;;;43.97;28.20;;;5.20;99.90;;;;;;4829426;29;20567;-86
2023/01/29 10:53:21;;;;;;;46.42;29.35;;;5.10;99.90;;;;;;4830981;29;20082;-85
2023/01/29 10:56:22;;;;;;;40.77;27.77;;;5.10;99.90;;;;;;4841692;29;20109;-84
2023/01/29 10:59:04;;;;;;;43.87;28.87;;;5.10;99.90;;;;;;4830447;29;20072;-86
2023/01/29 11:01:30;;;;;;;42.30;28.75;;;5.10;99.90;;;;;;4834499;29;20778;-86
2023/01/29 11:04:09;;;;;;;43.23;28.33;;;5.00;99.90;;;;;;4840573;29;20573;-83
2023/01/29 11:06:35;;;;;;;40.63;28.20;;;5.00;99.90;;;;;;4837627;29;20049;-86
2023/01/29 11:09:23;;;;;;;44.10;29.17;;;5.00;99.90;;;;;;4835960;29;20232;-86
2023/01/29 11:12:21;;;;;;;43.67;28.87;;;5.00;99.90;;;;;;4827703;29;20042;-85
2023/01/29 11:14:54;;;;;;;45.03;30.53;;;5.00;99.90;;;;;;4842696;29;20494;-82
2023/01/29 11:17:25;;;;;;;40.60;27.70;;;5.00;99.90;;;;;;4824148;29;20045;-86
2023/01/29 11:19:56;;;;;;;43.43;29.00;;;5.00;99.90;;;;;;4825371;29;20045;-86
2023/01/29 11:22:34;;;;;;;43.13;28.00;;;5.00;99.90;;;;;;4840529;29;20041;-87
2023/01/29 11:25:27;;;;;;;45.43;29.67;;;5.00;99.90;;;;;;4842468;29;20077;-84
2023/01/29 11:28:00;;;;;;;42.77;29.20;;;5.00;99.90;;;;;;4829368;29;20140;-87
2023/01/29 11:30:38;;;;;;;43.97;28.73;;;4.90;99.90;;;;;;4824779;29;20161;-84
2023/01/29 11:33:34;;;;;;;47.27;30.17;;;4.90;99.90;;;;;;4842276;29;20132;-87
2023/01/29 11:36:24;;;;;;;42.03;29.17;;;4.90;99.90;;;;;;4828745;29;20045;-86
2023/01/29 11:39:07;;;;;;;44.07;30.23;;;4.90;99.90;;;;;;4846785;29;20427;-85
2023/01/29 11:41:46;;;;;;;48.20;32.53;;;4.80;99.90;;;;;;4821809;29;20386;-85
2023/01/29 11:44:38;;;;;;;49.57;31.73;;;4.80;99.90;;;;;;4821993;29;20042;-86
2023/01/29 11:47:15;;;;;;;;;;;4.80;99.90;;;;;;4826059;29;20050;-86
2023/01/29 11:50:36;;;;;;;47.23;31.47;;;4.80;99.90;;;;;;4830560;29;20660;-85
2023/01/29 11:53:20;;;;;;;48.33;32.43;;;4.80;99.90;;;;;;4830332;29;20053;-85
2023/01/29 11:55:46;;;;;;;53.27;32.77;;;4.80;99.90;;;;;;4832406;29;20052;-87
2023/01/29 11:58:35;;;;;;;50.87;34.13;;;4.80;99.90;;;;;;4849359;29;20081;-85
2023/01/29 12:01:08;;;;;;;47.30;31.97;;;4.80;99.90;;;;;;4838617;29;20098;-87
2023/01/29 12:03:53;;;;;;;52.83;32.47;;;4.80;99.90;;;;;;4827399;29;20046;-86
2023/01/29 12:06:31;;;;;;;43.70;30.58;;;4.80;99.90;;;;;;4837389;29;20109;-85
2023/01/29 12:09:09;;;;;;;49.43;31.93;;;4.80;99.90;;;;;;4821748;29;20050;-87
2023/01/29 12:11:35;;;;;;;48.97;33.27;;;4.80;99.90;;;;;;4821429;29;20049;-85
2023/01/29 12:14:28;;;;;;;46.60;32.07;;;4.80;99.90;;;;;;4822112;29;20075;-84
2023/01/29 12:17:16;;;;;;;52.00;34.00;;;4.90;99.90;;;;;;4816951;29;20140;-83
2023/01/29 12:19:47;;;;;;;48.27;32.23;;;4.90;99.90;;;;;;4837465;29;20052;-87
2023/01/29 12:22:41;;;;;;;45.40;31.35;;;5.00;99.90;;;;;;4837577;29;20045;-84
2023/01/29 12:25:43;;;;;;;48.53;31.13;;;5.10;99.90;;;;;;4820980;29;20056;-85
2023/01/29 12:28:16;;;;;;;47.28;30.23;;;5.10;99.90;;;;;;4837146;29;20073;-84
2023/01/29 12:30:45;;;;;;;43.07;29.83;;;5.20;99.90;;;;;;4836327;29;20054;-86
2023/01/29 12:33:32;;;;;;;46.03;30.53;;;5.30;99.90;;;;;;4821680;29;20053;-85
2023/01/29 12:36:25;;;;;;;45.20;29.20;;;5.40;99.90;;;;;;4837686;29;20041;-84
2023/01/29 12:38:51;;;;;;;41.43;28.30;;;5.40;99.90;;;;;;4852243;29;20625;-84
2023/01/29 12:41:42;;;;;;;45.77;29.67;;;5.50;99.90;;;;;;4823523;29;20406;-87
2023/01/29 12:44:20;;;;;;;42.93;28.50;;;5.50;99.90;;;;;;4821791;29;20049;-83
2023/01/29 12:46:51;;;;;;;41.27;28.03;;;5.50;99.90;;;;;;4835635;29;20087;-84
2023/01/29 12:49:34;;;;;;;38.53;27.15;;;5.60;99.90;;;;;;4821380;29;20057;-86
2023/01/29 12:52:06;;;;;;;39.13;25.97;;;5.60;99.90;;;;;;4821287;29;20045;-84
2023/01/29 12:54:44;;;;;;;38.00;26.48;;;5.60;99.90;;;;;;4836855;29;20101;-84
2023/01/29 12:57:33;;;;;;;36.60;26.47;;;5.60;99.90;;;;;;4825716;29;20050;-85
2023/01/29 13:00:10;;;;;;;40.77;25.50;;;5.70;99.90;;;;;;4821901;29;20132;-86
2023/01/29 13:02:47;;;;;;;34.27;24.40;;;5.70;99.90;;;;;;4821935;29;20072;-84
2023/01/29 13:05:37;;;;;;;37.07;24.97;;;5.70;99.90;;;;;;4822707;29;20122;-85
2023/01/29 13:08:35;;;;;;;39.57;25.27;;;5.70;99.90;;;;;;4824766;29;20045;-84
2023/01/29 13:11:11;;;;;;;35.93;24.77;;;5.70;99.90;;;;;;4827068;29;20647;-85
2023/01/29 13:13:51;;;;;;;34.83;23.80;;;5.60;99.90;;;;;;4825165;29;20135;-84
2023/01/29 13:16:22;;;;;;;36.77;24.53;;;5.60;99.90;;;;;;4840839;29;20050;-84
2023/01/29 13:18:55;;;;;;;35.77;24.07;;;5.50;99.90;;;;;;4838956;29;20596;-85
2023/01/29 13:21:33;;;;;;;34.97;23.07;;;5.50;99.90;;;;;;4840724;29;20045;-81
2023/01/29 13:24:08;;;;;;;38.13;24.60;;;5.50;99.90;;;;;;4839870;29;20045;-83
2023/01/29 13:26:38;;;;;;;35.57;24.13;;;5.50;99.90;;;;;;4825430;29;20409;-84
2023/01/29 13:29:04;;;;;;;35.77;24.23;;;5.50;99.90;;;;;;4824392;29;20082;-83
2023/01/29 13:31:40;;;;;;;40.17;26.17;;;5.50;99.90;;;;;;4810153;29;20049;-83
2023/01/29 13:34:23;;;;;;;40.87;27.37;;;5.50;99.90;;;;;;4825547;29;20105;-83
2023/01/29 13:36:57;;;;;;;39.23;27.83;;;5.50;99.90;;;;;;4839843;29;20073;-83
2023/01/29 13:39:29;;;;;;;41.27;27.37;;;5.40;99.90;;;;;;4838780;29;20045;-82
2023/01/29 13:41:57;;;;;;;41.13;27.10;;;5.40;99.90;;;;;;4824525;29;20582;-83
2023/01/29 13:44:32;;;;;;;38.97;28.20;;;5.40;99.90;;;;;;4825201;29;20166;-85
2023/01/29 13:47:11;;;;;;;42.27;26.80;;;5.40;99.90;;;;;;4825470;29;20080;-85